CDT,Max TemperatureF,Mean TemperatureF,Min TemperatureF,Max Dew PointF,MeanDew PointF,Min DewpointF,Max Humidity, Mean Humidity, Min Humidity, Max Sea Level PressureIn, Mean Sea Level PressureIn, Min Sea Level PressureIn, Max VisibilityMiles, Mean VisibilityMiles, Min VisibilityMiles, Max Wind SpeedMPH, Mean Wind SpeedMPH, Max Gust SpeedMPH,PrecipitationIn, CloudCover, Events, WindDirDegrees
2012-9-1,91,76,60,73,63,57,100,69,31,30.08,30.03,29.96,10,8,0,8,3,,0.00,0,Fog-Rain,119
2012-9-2,96,80,64,72,65,59,100,64,28,30.00,29.93,29.86,10,10,7,13,8,20,0.00,0,,171
2012-9-3,86,76,64,72,68,64,100,79,55,29.96,29.91,29.87,10,10,9,22,8,24,0.00,0,Rain,126
2012-9-4,102,82,62,73,62,50,100,64,17,29.91,29.84,29.74,10,8,0,21,5,36,0.00,0,Fog,195
2012-9-5,84,70,55,61,51,39,100,55,20,30.00,29.92,29.77,10,10,10,24,9,31,0.00,0,,348
2012-9-6,91,70,50,64,52,41,83,51,28,30.02,29.91,29.78,10,10,2,20,8,26,0.00,0,,174
2012-9-7,73,63,50,63,50,41,82,60,33,30.18,30.03,29.82,10,10,5,23,12,31,0.00,1,Rain-Thunderstorm,350
2012-9-8,84,62,41,45,40,36,100,55,18,30.23,30.14,30.01,10,10,10,22,9,30,0.00,0,,310
2012-9-9,77,58,39,45,39,34,93,50,21,30.28,30.19,30.12,10,10,10,12,6,,0.00,0,,40
2012-9-10,89,70,50,48,47,45,94,50,22,30.13,30.01,29.89,10,10,10,24,12,30,0.00,0,,186
2012-9-11,95,76,57,48,46,45,67,37,19,29.90,29.87,29.81,10,10,10,25,14,32,0.00,0,,187
2012-9-12,77,65,53,57,49,37,100,63,29,30.31,30.08,29.87,10,9,3,32,15,44,0.30,3,Rain-Thunderstorm,40
2012-9-13,68,59,50,55,50,43,100,82,40,30.46,30.39,30.31,10,9,3,13,5,17,0.06,2,Rain,21
2012-9-14,80,61,42,48,42,32,100,59,19,30.41,30.34,30.26,10,10,10,13,4,17,0.00,0,,220
2012-9-15,78,61,44,61,46,36,100,65,22,30.29,30.20,30.09,10,10,10,12,3,20,0.00,0,,177
2012-9-16,78,68,57,63,58,50,100,80,39,30.10,30.01,29.92,10,9,0,13,6,18,0.00,3,Fog,203
2012-9-17,69,56,44,61,47,32,100,71,25,30.10,30.00,29.89,10,10,3,28,8,37,0.00,1,Rain,6
2012-9-18,75,56,37,46,39,32,100,58,25,30.14,30.04,29.92,10,10,6,13,5,18,0.00,1,,216
2012-9-19,91,68,46,48,41,32,100,52,15,30.05,29.91,29.85,10,10,10,20,8,26,0.00,0,,274
2012-9-20,75,58,41,39,35,30,87,48,21,30.10,30.02,29.95,10,10,10,9,4,,0.00,0,,219
2012-9-21,75,60,46,41,36,27,81,43,18,29.99,29.94,29.88,10,10,7,26,10,37,0.00,0,,301
2012-9-22,64,52,41,37,26,18,70,40,16,30.32,30.23,30.00,10,10,9,18,9,23,0.00,0,,15
2012-9-23,71,52,32,36,28,19,75,43,20,30.35,30.26,30.19,10,10,9,12,3,16,0.00,0,,155
2012-9-24,75,60,44,50,42,36,72,52,37,30.19,30.01,29.85,10,10,8,9,6,,0.00,0,,157
2012-9-25,82,65,48,50,45,39,100,56,21,29.92,29.87,29.84,10,10,2,9,3,,0.00,0,,37
2012-9-26,77,62,46,43,36,30,71,43,21,30.18,30.05,29.90,10,10,8,15,8,20,0.00,0,,50
2012-9-27,77,57,37,32,30,28,81,42,18,30.22,30.17,30.12,10,9,1,9,3,,0.00,0,Rain,69
2012-9-28,77,58,39,37,32,28,75,43,17,30.21,30.16,30.11,10,10,9,9,3,,0.00,0,,119
2012-9-29,77,58,39,50,38,32,93,52,22,30.20,30.13,30.05,10,10,8,7,3,,0.00,0,,166
2012-9-30,78,60,42,45,37,30,81,48,17,30.08,30.00,29.93,10,10,10,12,3,,0.00,0,,200